Time;durP1;ratioP1;P1;durP2;ratioP2;P2;SDS_P1;SDS_P2;PMS_P1;PMS_P2;Temp;Humidity;BMP_temperature;BMP_pressure;BME280_temperature;BME280_humidity;BME280_pressure;Samples;Min_cycle;Max_cycle;Signal;HPM_P1;HPM_P2
2021/12/27 00:00:43;;;;;;;19.48;8.93;;;;;;;;;;5146390;27;20081;-55
2021/12/27 00:03:10;;;;;;;23.27;11.43;;;;;;;;;;5146973;27;20055;-53
2021/12/27 00:05:36;;;;;;;16.70;9.50;;;;;;;;;;5145966;27;20103;-55
2021/12/27 00:08:03;;;;;;;13.45;7.43;;;;;;;;;;5146712;27;20043;-53
2021/12/27 00:10:29;;;;;;;15.85;9.00;;;;;;;;;;5146739;27;20035;-53
2021/12/27 00:12:56;;;;;;;20.58;11.27;;;;;;;;;;5146509;27;20047;-54
2021/12/27 00:15:22;;;;;;;18.20;10.55;;;;;;;;;;5146568;27;20043;-53
2021/12/27 00:17:48;;;;;;;17.15;10.90;;;;;;;;;;5146517;27;20047;-54
2021/12/27 00:20:16;;;;;;;18.00;10.02;;;;;;;;;;5145585;27;20108;-54
2021/12/27 00:22:43;;;;;;;22.30;12.30;;;;;;;;;;5146798;27;20483;-56
2021/12/27 00:25:10;;;;;;;18.20;10.73;;;;;;;;;;5146466;27;20062;-54
2021/12/27 00:27:36;;;;;;;19.63;11.75;;;;;;;;;;5146176;27;20055;-55
2021/12/27 00:30:03;;;;;;;22.63;12.85;;;;;;;;;;5146313;27;20046;-55
2021/12/27 00:32:29;;;;;;;24.77;12.38;;;;;;;;;;5146361;27;20047;-53
2021/12/27 00:34:55;;;;;;;18.92;12.70;;;;;;;;;;5146111;27;20064;-56
2021/12/27 00:37:21;;;;;;;20.88;12.93;;;;;;;;;;5145777;27;20043;-53
2021/12/27 00:39:47;;;;;;;21.15;11.55;;;;;;;;;;5146030;27;20036;-55
2021/12/27 00:42:13;;;;;;;21.05;11.85;;;;;;;;;;5146061;27;20043;-54
2021/12/27 00:44:40;;;;;;;22.17;12.93;;;;;;;;;;5146222;27;20093;-54
2021/12/27 00:47:06;;;;;;;20.88;12.70;;;;;;;;;;5145911;27;20047;-55
2021/12/27 00:49:32;;;;;;;15.07;10.30;;;;;;;;;;5145744;27;20051;-54
2021/12/27 00:51:58;;;;;;;23.73;12.93;;;;;;;;;;5145162;27;20051;-53
2021/12/27 00:54:24;;;;;;;17.70;10.73;;;;;;;;;;5145943;27;20051;-54
2021/12/27 00:56:50;;;;;;;21.20;11.30;;;;;;;;;;5145769;27;20072;-52
2021/12/27 00:59:16;;;;;;;20.42;12.23;;;;;;;;;;5145824;27;20043;-54
2021/12/27 01:01:43;;;;;;;20.35;11.88;;;;;;;;;;5145746;27;20054;-51
2021/12/27 01:04:09;;;;;;;16.77;11.02;;;;;;;;;;5145427;27;20038;-56
2021/12/27 01:06:35;;;;;;;21.40;11.40;;;;;;;;;;5109679;27;20057;-54
2021/12/27 01:09:01;;;;;;;19.42;12.65;;;;;;;;;;5145701;27;20039;-54
2021/12/27 01:11:40;;;;;;;21.92;10.27;;;;;;;;;;5145677;27;20410;-55
2021/12/27 01:14:15;;;;;;;21.50;11.70;;;;;;;;;;5145901;28;20047;-54
2021/12/27 01:16:43;;;;;;;24.73;12.45;;;;;;;;;;5145652;28;20046;-53
2021/12/27 01:19:09;;;;;;;;;;;;;;;;;;5145992;28;20114;-52
2021/12/27 01:21:35;;;;;;;18.27;9.43;;;;;;;;;;5144946;28;19922;-53
2021/12/27 01:24:02;;;;;;;20.63;11.98;;;;;;;;;;5145567;28;20044;-53
2021/12/27 01:26:28;;;;;;;14.90;9.38;;;;;;;;;;5145448;28;20082;-54
2021/12/27 01:28:56;;;;;;;18.38;11.05;;;;;;;;;;5145544;28;20046;-54
2021/12/27 01:31:22;;;;;;;;;;;;;;;;;;5130832;28;20035;-53
2021/12/27 01:33:49;;;;;;;24.90;12.70;;;;;;;;;;5124779;28;19920;-52
2021/12/27 01:36:15;;;;;;;18.45;10.52;;;;;;;;;;5124406;28;20063;-54
2021/12/27 01:38:42;;;;;;;25.85;13.65;;;;;;;;;;5125124;28;20075;-53
2021/12/27 01:41:10;;;;;;;21.20;11.23;;;;;;;;;;5110450;28;20039;-53
2021/12/27 01:43:37;;;;;;;19.42;11.93;;;;;;;;;;5145219;28;20039;-52
2021/12/27 01:46:05;;;;;;;24.15;13.52;;;;;;;;;;5145209;28;20055;-53
2021/12/27 01:48:36;;;;;;;21.80;13.52;;;;;;;;;;5145354;28;20045;-54
2021/12/27 01:51:03;;;;;;;25.60;12.82;;;;;;;;;;5144461;28;20098;-54
2021/12/27 01:53:32;;;;;;;19.40;11.35;;;;;;;;;;5145462;28;20051;-53
2021/12/27 01:55:59;;;;;;;14.00;9.38;;;;;;;;;;5145080;28;20098;-52
2021/12/27 01:58:26;;;;;;;19.58;12.27;;;;;;;;;;5145346;28;20092;-50
2021/12/27 02:00:53;;;;;;;23.07;13.00;;;;;;;;;;5144920;28;20058;-53
2021/12/27 02:03:20;;;;;;;24.35;13.98;;;;;;;;;;5145301;28;20047;-53
2021/12/27 02:05:47;;;;;;;23.08;13.48;;;;;;;;;;5144614;28;20079;-53
2021/12/27 02:08:13;;;;;;;26.42;12.07;;;;;;;;;;5145548;28;20039;-53
2021/12/27 02:10:39;;;;;;;27.17;14.10;;;;;;;;;;5145017;28;20406;-54
2021/12/27 02:13:06;;;;;;;24.70;13.32;;;;;;;;;;5145010;28;20039;-54
2021/12/27 02:15:32;;;;;;;23.35;13.45;;;;;;;;;;5145066;28;20054;-53
2021/12/27 02:17:58;;;;;;;20.58;12.02;;;;;;;;;;5126492;28;20107;-54
2021/12/27 02:20:25;;;;;;;19.95;12.40;;;;;;;;;;5146055;27;20285;-53
2021/12/27 02:22:54;;;;;;;23.40;13.02;;;;;;;;;;5148985;27;20043;-54
2021/12/27 02:25:21;;;;;;;23.63;12.25;;;;;;;;;;5148707;27;20521;-51
2021/12/27 02:27:47;;;;;;;22.70;13.90;;;;;;;;;;5130199;27;20051;-53
2021/12/27 02:30:14;;;;;;;25.45;15.13;;;;;;;;;;5148626;27;20049;-54
2021/12/27 02:32:53;;;;;;;25.08;12.95;;;;;;;;;;5148812;27;20047;-52
2021/12/27 02:35:25;;;;;;;25.70;14.70;;;;;;;;;;5148221;27;20080;-54
2021/12/27 02:37:51;;;;;;;24.73;12.82;;;;;;;;;;5130225;27;20039;-52
2021/12/27 02:40:18;;;;;;;16.25;10.25;;;;;;;;;;5148445;27;20414;-53
2021/12/27 02:42:57;;;;;;;24.95;14.00;;;;;;;;;;5148345;27;20043;-54
2021/12/27 02:45:24;;;;;;;18.27;12.05;;;;;;;;;;5148462;27;20066;-52
2021/12/27 02:47:51;;;;;;;26.63;15.77;;;;;;;;;;5148494;27;20050;-52
2021/12/27 02:50:17;;;;;;;21.77;13.32;;;;;;;;;;5147286;27;20127;-54
2021/12/27 02:52:43;;;;;;;24.23;14.52;;;;;;;;;;5148227;27;20490;-52
2021/12/27 02:55:12;;;;;;;23.85;14.93;;;;;;;;;;5148187;27;20043;-52
2021/12/27 02:57:39;;;;;;;23.45;14.48;;;;;;;;;;5148135;27;20047;-52
2021/12/27 03:00:11;;;;;;;28.08;15.13;;;;;;;;;;5147917;27;20538;-51
2021/12/27 03:02:37;;;;;;;28.02;15.43;;;;;;;;;;5148010;27;20055;-54
2021/12/27 03:05:04;;;;;;;24.70;14.43;;;;;;;;;;5147272;27;20053;-54
2021/12/27 03:07:30;;;;;;;21.70;14.57;;;;;;;;;;5129724;27;20043;-52
2021/12/27 03:09:58;;;;;;;23.83;14.63;;;;;;;;;;5147961;27;20072;-52
2021/12/27 03:12:24;;;;;;;22.20;13.98;;;;;;;;;;5147705;27;20506;-54
2021/12/27 03:14:50;;;;;;;25.42;14.05;;;;;;;;;;5147812;27;20081;-55
2021/12/27 03:17:16;;;;;;;25.23;14.07;;;;;;;;;;5147453;27;20072;-55
2021/12/27 03:19:42;;;;;;;25.38;14.73;;;;;;;;;;5147085;27;20559;-53
2021/12/27 03:22:08;;;;;;;26.92;14.43;;;;;;;;;;5146767;27;20130;-53
2021/12/27 03:24:35;;;;;;;25.17;14.77;;;;;;;;;;5147460;27;20097;-55
2021/12/27 03:27:01;;;;;;;25.75;15.50;;;;;;;;;;5147256;27;20047;-55
2021/12/27 03:29:27;;;;;;;23.83;14.20;;;;;;;;;;5147304;27;20053;-55
2021/12/27 03:31:55;;;;;;;30.10;15.27;;;;;;;;;;5146102;27;20068;-56
2021/12/27 03:34:21;;;;;;;25.75;13.95;;;;;;;;;;5147104;27;20043;-53
2021/12/27 03:36:48;;;;;;;26.67;15.65;;;;;;;;;;5147023;27;20053;-53
2021/12/27 03:39:14;;;;;;;27.90;15.00;;;;;;;;;;5147403;27;20083;-55
2021/12/27 03:41:40;;;;;;;24.50;14.82;;;;;;;;;;5147375;27;20043;-51
2021/12/27 03:44:06;;;;;;;26.20;15.02;;;;;;;;;;5147263;27;20039;-54
2021/12/27 03:46:32;;;;;;;24.50;13.95;;;;;;;;;;5146978;27;20047;-50
2021/12/27 03:48:59;;;;;;;29.02;14.82;;;;;;;;;;5146933;27;20636;-54
2021/12/27 03:51:25;;;;;;;26.50;14.85;;;;;;;;;;5146654;27;20114;-54
2021/12/27 03:53:52;;;;;;;28.25;16.00;;;;;;;;;;5147306;27;20043;-53
2021/12/27 03:56:23;;;;;;;21.55;13.82;;;;;;;;;;5146814;27;20043;-53
2021/12/27 03:59:18;;;;;;;29.38;16.60;;;;;;;;;;5146964;27;20039;-53
2021/12/27 04:01:35;;;;;;;25.80;16.00;;;;;;;;;;5145111;27;20051;-52
2021/12/27 04:04:01;;;;;;;27.77;16.63;;;;;;;;;;5146650;27;20043;-53
2021/12/27 04:06:28;;;;;;;25.60;14.82;;;;;;;;;;5146184;27;20035;-54
2021/12/27 04:08:55;;;;;;;30.90;16.63;;;;;;;;;;5146998;27;20050;-55
2021/12/27 04:11:21;;;;;;;28.20;15.50;;;;;;;;;;5146706;27;20072;-53
2021/12/27 04:13:47;;;;;;;26.85;14.75;;;;;;;;;;5146654;27;20039;-54
2021/12/27 04:16:13;;;;;;;22.33;13.05;;;;;;;;;;5146658;27;20077;-53
2021/12/27 04:18:39;;;;;;;26.73;16.17;;;;;;;;;;5146620;27;20098;-53
2021/12/27 04:21:05;;;;;;;24.38;15.70;;;;;;;;;;5127405;27;20051;-54
2021/12/27 04:23:32;;;;;;;26.05;15.32;;;;;;;;;;5146491;27;20126;-54
2021/12/27 04:25:58;;;;;;;30.92;16.02;;;;;;;;;;5146266;27;20384;-54
2021/12/27 04:28:24;;;;;;;28.20;16.02;;;;;;;;;;5146417;27;20114;-55
2021/12/27 04:30:50;;;;;;;26.98;16.05;;;;;;;;;;5145977;27;20065;-51
2021/12/27 04:33:16;;;;;;;27.70;15.50;;;;;;;;;;5146545;27;20043;-51
2021/12/27 04:35:43;;;;;;;27.67;15.20;;;;;;;;;;5145339;27;20118;-52
2021/12/27 04:38:09;;;;;;;25.45;15.35;;;;;;;;;;5146193;27;20046;-53
2021/12/27 04:40:36;;;;;;;22.15;13.32;;;;;;;;;;5146171;27;20422;-53
2021/12/27 04:43:18;;;;;;;25.95;16.50;;;;;;;;;;5145978;27;20102;-52
2021/12/27 04:45:44;;;;;;;30.25;16.38;;;;;;;;;;5145853;27;20043;-53
2021/12/27 04:48:11;;;;;;;30.23;18.15;;;;;;;;;;5146344;27;20080;-54
2021/12/27 04:50:37;;;;;;;26.98;15.52;;;;;;;;;;5145113;27;20047;-52
2021/12/27 04:53:05;;;;;;;28.83;17.27;;;;;;;;;;5146116;27;20126;-54
2021/12/27 04:55:34;;;;;;;22.95;13.88;;;;;;;;;;5145772;27;20043;-53
2021/12/27 04:58:00;;;;;;;29.88;17.75;;;;;;;;;;5145801;27;20410;-53
2021/12/27 05:00:27;;;;;;;30.92;16.85;;;;;;;;;;5145952;27;20121;-53
2021/12/27 05:02:53;;;;;;;29.58;16.75;;;;;;;;;;5127320;27;20088;-55
2021/12/27 05:05:20;;;;;;;28.75;16.65;;;;;;;;;;5145067;27;20047;-53
2021/12/27 05:07:47;;;;;;;24.65;14.68;;;;;;;;;;5145639;27;20047;-51
2021/12/27 05:10:16;;;;;;;27.92;15.25;;;;;;;;;;5145652;27;20092;-53
2021/12/27 05:12:42;;;;;;;28.77;15.52;;;;;;;;;;5145860;27;20043;-52
2021/12/27 05:15:08;;;;;;;32.80;18.27;;;;;;;;;;5145529;27;20075;-51
2021/12/27 05:17:34;;;;;;;29.10;17.42;;;;;;;;;;5145621;27;20126;-55
2021/12/27 05:20:04;;;;;;;27.15;16.88;;;;;;;;;;5145016;27;20047;-52
2021/12/27 05:22:31;;;;;;;34.72;17.77;;;;;;;;;;5145667;28;20067;-52
2021/12/27 05:24:57;;;;;;;29.30;17.98;;;;;;;;;;5145663;28;20047;-52
2021/12/27 05:27:24;;;;;;;31.25;17.05;;;;;;;;;;5145482;28;20077;-54
2021/12/27 05:29:50;;;;;;;32.55;18.02;;;;;;;;;;5145422;28;20099;-53
2021/12/27 05:32:16;;;;;;;31.85;18.00;;;;;;;;;;5145414;28;20047;-52
2021/12/27 05:34:43;;;;;;;32.40;19.02;;;;;;;;;;5145228;28;20074;-54
2021/12/27 05:37:09;;;;;;;32.67;18.30;;;;;;;;;;5145131;28;20098;-55
2021/12/27 05:39:36;;;;;;;34.58;19.05;;;;;;;;;;5145827;28;20079;-54
2021/12/27 05:42:02;;;;;;;33.80;19.08;;;;;;;;;;5145377;28;20146;-53
2021/12/27 05:44:28;;;;;;;33.60;19.08;;;;;;;;;;5126994;28;20046;-54
2021/12/27 05:46:54;;;;;;;35.33;20.13;;;;;;;;;;5145126;28;20054;-56
2021/12/27 05:49:21;;;;;;;30.08;18.70;;;;;;;;;;5145127;28;20066;-52
2021/12/27 05:51:47;;;;;;;33.30;17.52;;;;;;;;;;5144736;28;20095;-53
2021/12/27 05:54:13;;;;;;;34.35;18.63;;;;;;;;;;5145237;27;20039;-54
2021/12/27 05:56:40;;;;;;;35.13;19.45;;;;;;;;;;5149144;27;20224;-54
2021/12/27 05:59:07;;;;;;;37.33;20.03;;;;;;;;;;5149663;27;20043;-54
2021/12/27 06:01:33;;;;;;;35.63;20.38;;;;;;;;;;5127156;28;20344;-54
2021/12/27 06:03:59;;;;;;;35.63;19.77;;;;;;;;;;5128924;28;20047;-54
2021/12/27 06:06:26;;;;;;;40.28;21.73;;;;;;;;;;5127805;28;20052;-53
2021/12/27 06:08:52;;;;;;;35.13;19.67;;;;;;;;;;5128583;28;20047;-54
2021/12/27 06:11:18;;;;;;;37.35;21.10;;;;;;;;;;5128266;28;20039;-55
2021/12/27 06:13:45;;;;;;;40.05;21.67;;;;;;;;;;5128557;28;20111;-54
2021/12/27 06:16:11;;;;;;;45.67;23.42;;;;;;;;;;5128544;28;20044;-54
2021/12/27 06:18:38;;;;;;;47.33;25.02;;;;;;;;;;5128330;28;20193;-51
2021/12/27 06:21:04;;;;;;;50.50;23.20;;;;;;;;;;5127508;28;20071;-52
2021/12/27 06:23:31;;;;;;;50.70;25.73;;;;;;;;;;5128316;28;20131;-52
2021/12/27 06:25:57;;;;;;;43.03;24.17;;;;;;;;;;5127791;28;20483;-53
2021/12/27 06:28:23;;;;;;;51.92;24.95;;;;;;;;;;5128235;28;20036;-54
2021/12/27 06:30:49;;;;;;;47.08;24.02;;;;;;;;;;5128191;28;20047;-54
2021/12/27 06:33:16;;;;;;;42.70;22.63;;;;;;;;;;5128156;28;20567;-55
2021/12/27 06:35:42;;;;;;;48.83;25.73;;;;;;;;;;5127321;28;20079;-52
2021/12/27 06:38:08;;;;;;;47.38;24.45;;;;;;;;;;5128011;28;20082;-54
2021/12/27 06:40:35;;;;;;;50.30;22.77;;;;;;;;;;5127914;28;20059;-54
2021/12/27 06:43:01;;;;;;;52.70;24.98;;;;;;;;;;5128217;28;20058;-53
2021/12/27 06:45:27;;;;;;;49.03;25.38;;;;;;;;;;5127534;28;20046;-54
2021/12/27 06:47:54;;;;;;;46.63;25.33;;;;;;;;;;5127742;28;20043;-53
2021/12/27 06:50:21;;;;;;;46.20;25.13;;;;;;;;;;5126725;28;20407;-52
2021/12/27 06:52:47;;;;;;;50.17;26.65;;;;;;;;;;5127859;28;20036;-54
2021/12/27 06:55:14;;;;;;;50.25;25.23;;;;;;;;;;5127644;28;20064;-50
2021/12/27 06:57:40;;;;;;;53.97;26.48;;;;;;;;;;5127573;28;20103;-53
2021/12/27 07:00:09;;;;;;;43.60;23.33;;;;;;;;;;5127329;28;20067;-55
2021/12/27 07:02:35;;;;;;;49.08;23.67;;;;;;;;;;5144519;27;20132;-51
2021/12/27 07:05:01;;;;;;;50.65;22.02;;;;;;;;;;5147547;27;20440;-55
2021/12/27 07:07:27;;;;;;;52.40;26.35;;;;;;;;;;5129502;27;20047;-52
2021/12/27 07:09:53;;;;;;;48.53;23.15;;;;;;;;;;5147713;27;20049;-53
2021/12/27 07:12:19;;;;;;;53.30;25.65;;;;;;;;;;5147883;27;20039;-52
2021/12/27 07:14:48;;;;;;;49.13;24.45;;;;;;;;;;5147745;27;20043;-53
2021/12/27 07:17:14;;;;;;;47.50;23.65;;;;;;;;;;5147785;27;20078;-53
2021/12/27 07:19:41;;;;;;;47.00;23.83;;;;;;;;;;5147601;27;20039;-54
2021/12/27 07:22:07;;;;;;;58.00;25.73;;;;;;;;;;5147224;27;20050;-54
2021/12/27 07:24:33;;;;;;;53.25;27.55;;;;;;;;;;5147596;27;20043;-51
2021/12/27 07:26:59;;;;;;;61.67;28.60;;;;;;;;;;5147627;27;20075;-55
2021/12/27 07:29:26;;;;;;;67.80;28.25;;;;;;;;;;5147458;27;20047;-55
2021/12/27 07:31:52;;;;;;;56.80;27.42;;;;;;;;;;5147294;27;20039;-54
2021/12/27 07:34:21;;;;;;;66.85;27.75;;;;;;;;;;5147466;27;20046;-55
2021/12/27 07:36:48;;;;;;;62.00;27.75;;;;;;;;;;5146800;27;20047;-54
2021/12/27 07:39:14;;;;;;;68.70;29.75;;;;;;;;;;5147337;27;20130;-56
2021/12/27 07:41:41;;;;;;;79.85;29.83;;;;;;;;;;5147201;27;20044;-53
2021/12/27 07:44:08;;;;;;;49.10;24.33;;;;;;;;;;5147199;27;20069;-55
2021/12/27 07:46:35;;;;;;;72.18;28.13;;;;;;;;;;5147320;27;20051;-54
2021/12/27 07:49:02;;;;;;;66.32;28.70;;;;;;;;;;5147113;27;20042;-54
2021/12/27 07:51:28;;;;;;;70.90;28.92;;;;;;;;;;5146085;27;20106;-53
2021/12/27 07:53:54;;;;;;;67.60;29.33;;;;;;;;;;5146829;27;20039;-55
2021/12/27 07:56:20;;;;;;;69.43;28.58;;;;;;;;;;5146687;27;20049;-55
2021/12/27 07:58:46;;;;;;;71.93;27.27;;;;;;;;;;5128744;27;20446;-54
2021/12/27 08:01:12;;;;;;;74.95;30.20;;;;;;;;;;5146570;27;20063;-53
2021/12/27 08:03:39;;;;;;;74.30;28.17;;;;;;;;;;5146849;27;20047;-55
2021/12/27 08:06:05;;;;;;;64.78;27.83;;;;;;;;;;5145783;27;20402;-53
2021/12/27 08:08:31;;;;;;;55.45;24.05;;;;;;;;;;5146686;27;20039;-55
2021/12/27 08:10:57;;;;;;;73.20;29.08;;;;;;;;;;5146953;27;20552;-51
2021/12/27 08:13:23;;;;;;;71.30;28.77;;;;;;;;;;5146568;27;20039;-53
2021/12/27 08:15:49;;;;;;;67.93;28.98;;;;;;;;;;5146600;27;20039;-54
2021/12/27 08:18:15;;;;;;;57.53;27.73;;;;;;;;;;5146028;27;20196;-52
2021/12/27 08:20:41;;;;;;;64.75;28.50;;;;;;;;;;5145253;27;20117;-53
2021/12/27 08:23:08;;;;;;;71.40;30.45;;;;;;;;;;5128024;27;20074;-54
2021/12/27 08:25:34;;;;;;;64.63;29.75;;;;;;;;;;5146627;27;20047;-53
2021/12/27 08:28:00;;;;;;;71.55;32.65;;;;;;;;;;5146076;27;20070;-52
2021/12/27 08:30:26;;;;;;;74.47;30.00;;;;;;;;;;5146374;27;20035;-56
2021/12/27 08:32:55;;;;;;;66.70;28.90;;;;;;;;;;5146500;27;20046;-53
2021/12/27 08:35:22;;;;;;;60.97;28.15;;;;;;;;;;5145331;27;20051;-54
2021/12/27 08:37:48;;;;;;;71.63;30.20;;;;;;;;;;5146439;27;20107;-54
2021/12/27 08:40:14;;;;;;;59.25;28.67;;;;;;;;;;5127475;27;20053;-53
2021/12/27 08:42:41;;;;;;;69.07;30.65;;;;;;;;;;5127835;27;20395;-52
2021/12/27 08:45:07;;;;;;;71.05;30.15;;;;;;;;;;5145951;27;20051;-53
2021/12/27 08:47:33;;;;;;;68.63;28.92;;;;;;;;;;5146038;27;20110;-52
2021/12/27 08:50:00;;;;;;;66.78;28.95;;;;;;;;;;5145860;27;20072;-53
2021/12/27 08:52:28;;;;;;;68.05;29.80;;;;;;;;;;5145633;27;20055;-52
2021/12/27 08:54:54;;;;;;;74.88;29.83;;;;;;;;;;5145912;27;20039;-53
2021/12/27 08:57:20;;;;;;;71.85;31.98;;;;;;;;;;5145891;27;20043;-54
2021/12/27 08:59:46;;;;;;;70.75;31.17;;;;;;;;;;5145851;27;20118;-53
2021/12/27 09:02:13;;;;;;;78.97;30.48;;;;;;;;;;5145666;27;20055;-54
2021/12/27 09:04:39;;;;;;;60.35;27.70;;;;;;;;;;5145445;27;20051;-54
2021/12/27 09:07:05;;;;;;;70.90;30.52;;;;;;;;;;5145032;27;20051;-56
2021/12/27 09:09:31;;;;;;;81.30;28.98;;;;;;;;;;5145822;27;20043;-54
2021/12/27 09:11:57;;;;;;;76.20;30.63;;;;;;;;;;5145636;27;20047;-53
2021/12/27 09:14:23;;;;;;;70.78;31.25;;;;;;;;;;5145776;27;20039;-55
2021/12/27 09:16:50;;;;;;;81.78;31.25;;;;;;;;;;5145673;27;20558;-54
2021/12/27 09:19:16;;;;;;;82.97;31.52;;;;;;;;;;5145422;27;20043;-52
2021/12/27 09:21:42;;;;;;;81.10;30.33;;;;;;;;;;5144915;27;20044;-54
2021/12/27 09:24:08;;;;;;;82.38;31.38;;;;;;;;;;5145737;28;20100;-53
2021/12/27 09:26:35;;;;;;;72.25;29.65;;;;;;;;;;5145368;28;20508;-54
2021/12/27 09:29:01;;;;;;;80.30;31.52;;;;;;;;;;5127620;28;20051;-54
2021/12/27 09:31:28;;;;;;;76.13;29.48;;;;;;;;;;5149289;27;20064;-54
2021/12/27 09:33:54;;;;;;;74.18;28.92;;;;;;;;;;5149735;27;20096;-54
2021/12/27 09:36:20;;;;;;;77.75;30.05;;;;;;;;;;5149202;27;20043;-54
2021/12/27 09:38:47;;;;;;;74.32;28.33;;;;;;;;;;5149713;27;20054;-54
2021/12/27 09:41:14;;;;;;;77.63;28.85;;;;;;;;;;5149844;27;20047;-55
2021/12/27 09:43:40;;;;;;;76.38;30.63;;;;;;;;;;5149640;27;20121;-55
2021/12/27 09:46:06;;;;;;;75.50;29.08;;;;;;;;;;5149366;27;20100;-53
2021/12/27 09:48:34;;;;;;;74.70;28.50;;;;;;;;;;5149588;27;20070;-54
2021/12/27 09:51:00;;;;;;;73.72;26.70;;;;;;;;;;5148542;27;20043;-54
2021/12/27 09:53:26;;;;;;;85.93;32.15;;;;;;;;;;5149763;27;20096;-55
2021/12/27 09:55:52;;;;;;;84.32;31.15;;;;;;;;;;5149195;27;20071;-55
2021/12/27 09:58:19;;;;;;;79.32;31.10;;;;;;;;;;5149534;27;20066;-55
2021/12/27 10:00:45;;;;;;;92.25;32.45;;;;;;;;;;5149075;27;20097;-55
2021/12/27 10:03:12;;;;;;;78.38;30.33;;;;;;;;;;5149196;27;20119;-55
2021/12/27 10:05:38;;;;;;;95.03;33.60;;;;;;;;;;5148629;27;20460;-56
2021/12/27 10:08:05;;;;;;;80.30;31.63;;;;;;;;;;5149064;27;20093;-54
2021/12/27 10:10:34;;;;;;;89.50;33.40;;;;;;;;;;5148977;27;20051;-55
2021/12/27 10:13:01;;;;;;;84.57;30.80;;;;;;;;;;5149136;27;20035;-55
2021/12/27 10:15:35;;;;;;;83.03;31.80;;;;;;;;;;5148948;27;20108;-53
2021/12/27 10:18:11;;;;;;;81.22;32.22;;;;;;;;;;5148921;27;20107;-56
2021/12/27 10:20:37;;;;;;;94.15;32.13;;;;;;;;;;5148330;27;20051;-55
2021/12/27 10:23:04;;;;;;;92.38;31.10;;;;;;;;;;5148874;27;20117;-55
2021/12/27 10:25:30;;;;;;;83.57;27.83;;;;;;;;;;5148861;27;20047;-56
2021/12/27 10:27:57;;;;;;;104.85;32.05;;;;;;;;;;5148889;27;20072;-55
2021/12/27 10:30:24;;;;;;;88.90;32.65;;;;;;;;;;5148481;27;20047;-58
2021/12/27 10:33:12;;;;;;;81.40;31.42;;;;;;;;;;5148794;27;20079;-58
2021/12/27 10:35:38;;;;;;;95.80;32.47;;;;;;;;;;5148107;27;20068;-56
2021/12/27 10:38:24;;;;;;;109.55;36.80;;;;;;;;;;5148712;27;20047;-57
2021/12/27 10:40:52;;;;;;;116.45;34.25;;;;;;;;;;5147864;27;20043;-57
2021/12/27 10:43:19;;;;;;;132.00;36.97;;;;;;;;;;5148571;27;20043;-57
2021/12/27 10:45:47;;;;;;;112.33;35.27;;;;;;;;;;5148383;27;20108;-56
2021/12/27 10:48:20;;;;;;;136.95;37.95;;;;;;;;;;5148554;27;20296;-55
2021/12/27 10:50:46;;;;;;;134.57;38.72;;;;;;;;;;5147484;27;20079;-57
2021/12/27 10:53:14;;;;;;;141.35;38.17;;;;;;;;;;5148797;27;20043;-56
2021/12/27 10:55:43;;;;;;;140.45;37.72;;;;;;;;;;5148107;27;20043;-55
2021/12/27 10:58:09;;;;;;;117.32;37.83;;;;;;;;;;5148087;27;20064;-55
2021/12/27 11:00:36;;;;;;;127.97;37.47;;;;;;;;;;5148017;27;20071;-57
2021/12/27 11:03:02;;;;;;;134.98;38.95;;;;;;;;;;5147915;27;20051;-58
2021/12/27 11:05:30;;;;;;;107.53;36.10;;;;;;;;;;5147548;27;20079;-57
2021/12/27 11:08:01;;;;;;;119.03;36.60;;;;;;;;;;5148005;27;20054;-56
2021/12/27 11:10:32;;;;;;;127.80;36.38;;;;;;;;;;5147850;27;20088;-54
2021/12/27 11:12:59;;;;;;;131.38;37.05;;;;;;;;;;5148031;27;20080;-56
2021/12/27 11:15:29;;;;;;;153.93;39.47;;;;;;;;;;5147586;27;20047;-56
2021/12/27 11:17:55;;;;;;;144.48;36.55;;;;;;;;;;5148044;27;20039;-55
2021/12/27 11:20:22;;;;;;;148.10;38.67;;;;;;;;;;5146692;27;20549;-54
2021/12/27 11:22:50;;;;;;;153.35;38.92;;;;;;;;;;5147708;27;20047;-57
2021/12/27 11:25:42;;;;;;;156.05;36.35;;;;;;;;;;5147786;27;20118;-55
2021/12/27 11:28:25;;;;;;;141.10;36.15;;;;;;;;;;5143196;27;20051;-56
2021/12/27 11:30:52;;;;;;;150.10;37.85;;;;;;;;;;5147537;27;20051;-54
2021/12/27 11:33:20;;;;;;;165.65;42.88;;;;;;;;;;5147441;27;20515;-56
2021/12/27 11:35:52;;;;;;;175.73;40.28;;;;;;;;;;5146936;27;20038;-56
2021/12/27 11:38:27;;;;;;;160.98;36.17;;;;;;;;;;5147372;27;20069;-56
2021/12/27 11:40:53;;;;;;;136.75;37.65;;;;;;;;;;5147227;27;20050;-56
2021/12/27 11:43:19;;;;;;;153.35;38.78;;;;;;;;;;5147340;27;20112;-55
2021/12/27 11:45:53;;;;;;;208.35;40.03;;;;;;;;;;5147016;27;20122;-55
2021/12/27 11:48:20;;;;;;;182.98;40.35;;;;;;;;;;5147259;27;20054;-55
2021/12/27 11:50:59;;;;;;;184.57;40.95;;;;;;;;;;5146598;27;20039;-55
2021/12/27 11:53:27;;;;;;;186.88;39.03;;;;;;;;;;5146092;27;20085;-56
2021/12/27 11:55:53;;;;;;;;;;;;;;;;;;5147466;27;20051;-55
2021/12/27 11:58:44;;;;;;;186.15;38.83;;;;;;;;;;5147051;27;20320;-55
2021/12/27 12:01:22;;;;;;;193.75;38.20;;;;;;;;;;5134658;27;20142;-55
2021/12/27 12:03:49;;;;;;;232.27;41.90;;;;;;;;;;5146688;27;20456;-55
2021/12/27 12:06:34;;;;;;;192.70;34.67;;;;;;;;;;5146196;27;20047;-54
2021/12/27 12:09:01;;;;;;;223.07;43.42;;;;;;;;;;5147029;27;20704;-56
2021/12/27 12:11:32;;;;;;;231.60;39.83;;;;;;;;;;5146681;27;20074;-55
2021/12/27 12:13:59;;;;;;;288.30;45.47;;;;;;;;;;5146620;27;20285;-56
2021/12/27 12:16:26;;;;;;;184.38;42.00;;;;;;;;;;5146627;27;20077;-57
2021/12/27 12:18:52;;;;;;;193.98;40.22;;;;;;;;;;5146648;27;20589;-56
2021/12/27 12:21:34;;;;;;;182.77;36.55;;;;;;;;;;5145666;27;20039;-55
2021/12/27 12:24:01;;;;;;;196.95;40.45;;;;;;;;;;5146862;27;20102;-56
2021/12/27 12:26:30;;;;;;;247.02;41.70;;;;;;;;;;5146238;27;20047;-55
2021/12/27 12:29:00;;;;;;;155.07;38.63;;;;;;;;;;5146443;27;20039;-56
2021/12/27 12:31:31;;;;;;;189.02;38.53;;;;;;;;;;5146088;27;20502;-55
2021/12/27 12:34:19;;;;;;;164.20;34.25;;;;;;;;;;5146309;27;20089;-57
2021/12/27 12:36:49;;;;;;;140.10;31.13;;;;;;;;;;5145127;27;20157;-54
2021/12/27 12:39:15;;;;;;;173.00;34.80;;;;;;;;;;5128122;27;20086;-55
2021/12/27 12:41:42;;;;;;;232.60;37.97;;;;;;;;;;5145816;27;20099;-57
2021/12/27 12:44:08;;;;;;;226.52;40.65;;;;;;;;;;5146217;27;20135;-57
2021/12/27 12:46:38;;;;;;;156.52;36.00;;;;;;;;;;5145858;27;20453;-56
2021/12/27 12:49:10;;;;;;;232.35;44.50;;;;;;;;;;5146148;27;20039;-55
2021/12/27 12:51:43;;;;;;;238.10;43.83;;;;;;;;;;5145338;27;20391;-56
2021/12/27 12:54:22;;;;;;;238.50;43.28;;;;;;;;;;5146251;27;20039;-55
2021/12/27 12:57:07;;;;;;;270.00;44.70;;;;;;;;;;5145813;27;20098;-55
2021/12/27 12:59:34;;;;;;;245.45;45.08;;;;;;;;;;5145659;27;20047;-55
2021/12/27 13:02:06;;;;;;;296.63;47.45;;;;;;;;;;5145612;27;20054;-56
2021/12/27 13:04:38;;;;;;;254.18;40.25;;;;;;;;;;5145446;27;20054;-56
2021/12/27 13:07:04;;;;;;;226.88;39.67;;;;;;;;;;5144900;27;20455;-54
2021/12/27 13:09:41;;;;;;;271.65;44.15;;;;;;;;;;5145799;27;20103;-55
2021/12/27 13:12:07;;;;;;;197.27;38.35;;;;;;;;;;5145687;27;20121;-56
2021/12/27 13:14:34;;;;;;;307.58;46.70;;;;;;;;;;5145532;27;20054;-57
2021/12/27 13:17:10;;;;;;;237.80;42.45;;;;;;;;;;5145577;27;20479;-55
2021/12/27 13:19:56;;;;;;;233.50;43.25;;;;;;;;;;5145296;27;20058;-56
2021/12/27 13:22:38;;;;;;;195.80;39.33;;;;;;;;;;5144878;27;20070;-56
2021/12/27 13:25:05;;;;;;;279.15;45.65;;;;;;;;;;5145173;28;20100;-55
2021/12/27 13:27:31;;;;;;;253.32;43.35;;;;;;;;;;5145767;28;20078;-57
2021/12/27 13:30:07;;;;;;;265.35;42.63;;;;;;;;;;5127045;28;20039;-56
2021/12/27 13:32:33;;;;;;;216.65;40.47;;;;;;;;;;5145407;28;20047;-57
2021/12/27 13:34:59;;;;;;;215.57;34.88;;;;;;;;;;5145120;28;20043;-56
2021/12/27 13:37:25;;;;;;;237.70;41.67;;;;;;;;;;5145313;28;20104;-56
2021/12/27 13:40:03;;;;;;;286.70;46.20;;;;;;;;;;5145933;28;20117;-55
2021/12/27 13:42:29;;;;;;;334.05;49.80;;;;;;;;;;5145659;28;20043;-56
2021/12/27 13:45:06;;;;;;;293.55;44.45;;;;;;;;;;5145240;28;20047;-56
2021/12/27 13:47:32;;;;;;;300.20;47.20;;;;;;;;;;5145454;28;20043;-57
2021/12/27 13:49:58;;;;;;;254.18;44.97;;;;;;;;;;5144758;28;20122;-57
2021/12/27 13:52:25;;;;;;;356.50;51.10;;;;;;;;;;5144959;28;20122;-57
2021/12/27 13:54:53;;;;;;;352.60;51.65;;;;;;;;;;5145247;28;20046;-56
2021/12/27 13:57:19;;;;;;;431.88;64.90;;;;;;;;;;5144932;28;20122;-56
2021/12/27 13:59:48;;;;;;;403.25;53.88;;;;;;;;;;5145115;28;20062;-56
2021/12/27 14:02:15;;;;;;;371.67;49.17;;;;;;;;;;5144981;28;20087;-55
2021/12/27 14:04:41;;;;;;;233.85;37.63;;;;;;;;;;5126111;28;20089;-56
2021/12/27 14:07:09;;;;;;;273.95;45.78;;;;;;;;;;5144738;28;20047;-57
2021/12/27 14:09:40;;;;;;;212.40;35.67;;;;;;;;;;5145252;28;20110;-56
2021/12/27 14:12:07;;;;;;;331.77;49.60;;;;;;;;;;5144966;28;20232;-56
2021/12/27 14:14:47;;;;;;;118.95;23.42;;;;;;;;;;5145039;28;20047;-55
2021/12/27 14:17:19;;;;;;;328.10;48.97;;;;;;;;;;5147925;27;20040;-55
2021/12/27 14:19:46;;;;;;;310.08;50.88;;;;;;;;;;5148670;27;20039;-55